createdAt,value
2022-12-18T00:00:05.379Z,33.47
2022-12-18T00:02:34.696Z,33.34
2022-12-18T00:05:02.749Z,33.54
2022-12-18T00:07:30.664Z,33.51
2022-12-18T00:09:58.643Z,33.57
2022-12-18T00:12:26.551Z,33.55
2022-12-18T00:14:54.492Z,33.57
2022-12-18T00:17:22.404Z,33.48
2022-12-18T00:19:51.741Z,33.58
2022-12-18T00:22:19.662Z,33.57
2022-12-18T00:24:47.647Z,33.49
2022-12-18T00:27:15.573Z,33.44
2022-12-18T00:29:43.500Z,33.86
2022-12-18T00:32:11.477Z,33.48
2022-12-18T00:34:39.486Z,33.47
2022-12-18T00:37:08.787Z,33.55
2022-12-18T00:39:36.981Z,33.46
2022-12-18T00:42:22.584Z,33.57
2022-12-18T00:44:50.465Z,33.51
2022-12-18T00:47:18.370Z,33.50
2022-12-18T00:49:47.151Z,33.48
2022-12-18T00:52:16.667Z,33.56
2022-12-18T00:54:44.537Z,33.50
2022-12-18T00:57:12.754Z,33.58
2022-12-18T00:59:40.917Z,33.58
2022-12-18T01:02:09.005Z,33.63
2022-12-18T01:04:37.007Z,33.59
2022-12-18T01:07:04.944Z,33.72
2022-12-18T01:09:34.358Z,33.58
2022-12-18T01:12:02.365Z,33.59
2022-12-18T01:14:30.315Z,33.56
2022-12-18T01:16:58.280Z,33.46
2022-12-18T01:19:26.333Z,33.53
2022-12-18T01:21:54.221Z,33.60
2022-12-18T01:24:22.175Z,33.54
2022-12-18T01:26:51.571Z,33.70
2022-12-18T01:29:19.612Z,33.58
2022-12-18T01:31:49.937Z,33.82
2022-12-18T01:34:17.954Z,33.59
2022-12-18T01:36:45.932Z,33.56
2022-12-18T01:39:15.539Z,33.60
2022-12-18T01:42:01.748Z,33.50
2022-12-18T01:45:08.218Z,34.13
2022-12-18T01:47:40.304Z,33.67
2022-12-18T01:50:12.876Z,33.65
2022-12-18T01:52:42.688Z,33.67
2022-12-18T01:55:13.316Z,33.61
2022-12-18T01:57:42.643Z,33.58
2022-12-18T02:00:15.877Z,33.55
2022-12-18T02:02:45.447Z,33.66
2022-12-18T02:05:16.157Z,33.64
2022-12-18T02:07:55.321Z,33.74
2022-12-18T02:10:29.254Z,33.67
2022-12-18T02:13:04.140Z,33.61
2022-12-18T02:15:40.774Z,33.66
2022-12-18T02:18:13.474Z,33.60
2022-12-18T02:20:46.964Z,33.68
2022-12-18T02:23:26.329Z,33.75
2022-12-18T02:26:20.105Z,34.05
2022-12-18T02:28:54.130Z,33.81
2022-12-18T02:31:28.300Z,33.78
2022-12-18T02:33:58.728Z,33.72
2022-12-18T02:36:29.311Z,33.78
2022-12-18T02:38:59.992Z,33.77
2022-12-18T02:41:30.596Z,33.80
2022-12-18T02:44:04.092Z,33.95
2022-12-18T02:46:36.626Z,33.71
2022-12-18T02:49:14.176Z,33.65
2022-12-18T02:51:52.681Z,33.83
2022-12-18T02:54:36.685Z,33.86
2022-12-18T02:57:15.574Z,33.80
2022-12-18T02:59:54.667Z,33.76
2022-12-18T03:02:29.171Z,33.85
2022-12-18T03:05:03.385Z,33.78
2022-12-18T03:07:42.422Z,33.88
2022-12-18T03:10:16.310Z,33.87
2022-12-18T03:12:49.821Z,33.78
2022-12-18T03:15:23.106Z,33.85
2022-12-18T03:17:54.905Z,33.80
2022-12-18T03:20:25.595Z,33.83
2022-12-18T03:23:00.254Z,33.81
2022-12-18T03:25:29.997Z,33.76
2022-12-18T03:28:03.038Z,33.85
2022-12-18T03:30:35.921Z,33.78
2022-12-18T03:33:10.118Z,33.90
2022-12-18T03:35:42.369Z,33.79
2022-12-18T03:38:11.174Z,33.73
2022-12-18T03:40:47.232Z,33.85
2022-12-18T03:43:22.774Z,33.90
2022-12-18T03:45:55.458Z,33.87
2022-12-18T03:48:31.825Z,33.87
2022-12-18T03:51:04.167Z,33.81
2022-12-18T03:53:42.423Z,33.86
2022-12-18T03:56:12.261Z,33.88
2022-12-18T03:58:43.479Z,33.79
2022-12-18T04:01:15.799Z,33.84
2022-12-18T04:03:45.759Z,33.89
2022-12-18T04:06:14.442Z,33.81
2022-12-18T04:08:43.182Z,33.73
2022-12-18T04:11:11.750Z,33.83
2022-12-18T04:13:41.817Z,33.89
2022-12-18T04:16:10.502Z,33.94
2022-12-18T04:18:38.567Z,33.89
2022-12-18T04:21:06.819Z,33.94
2022-12-18T04:23:34.768Z,33.90
2022-12-18T04:26:02.728Z,33.79
2022-12-18T04:28:30.622Z,33.85
2022-12-18T04:31:00.003Z,33.95
2022-12-18T04:33:27.973Z,33.88
2022-12-18T04:35:55.926Z,33.88
2022-12-18T04:38:23.963Z,34.00
2022-12-18T04:40:51.925Z,33.78
2022-12-18T04:43:19.988Z,33.86
2022-12-18T04:45:47.987Z,33.86
2022-12-18T04:48:17.415Z,33.96
2022-12-18T04:50:45.380Z,33.87
2022-12-18T04:53:13.396Z,33.98
2022-12-18T04:55:41.306Z,33.96
2022-12-18T04:58:09.237Z,33.80
2022-12-18T05:00:37.659Z,33.81
2022-12-18T05:03:05.764Z,33.98
2022-12-18T05:05:36.695Z,33.92
2022-12-18T05:08:04.877Z,33.82
2022-12-18T05:10:37.991Z,34.04
2022-12-18T05:13:06.546Z,33.91
2022-12-18T05:15:35.982Z,33.91
2022-12-18T05:18:05.113Z,34.04
2022-12-18T05:20:34.401Z,33.90
2022-12-18T05:23:02.311Z,33.74
2022-12-18T05:25:30.265Z,33.98
2022-12-18T05:27:58.833Z,34.00
2022-12-18T05:30:28.561Z,34.02
2022-12-18T05:32:56.717Z,34.02
2022-12-18T05:35:24.703Z,33.78
2022-12-18T05:37:54.013Z,33.96
2022-12-18T05:40:21.920Z,34.14
2022-12-18T05:42:49.835Z,34.02
2022-12-18T05:45:17.814Z,34.06
2022-12-18T05:47:45.763Z,34.11
2022-12-18T05:50:13.751Z,34.02
2022-12-18T05:52:41.677Z,34.08
2022-12-18T05:55:11.305Z,33.97
2022-12-18T05:57:39.491Z,33.96
2022-12-18T06:00:08.804Z,33.97
2022-12-18T06:02:36.829Z,33.89
2022-12-18T06:05:05.114Z,34.04
2022-12-18T06:07:33.015Z,34.01
2022-12-18T06:10:01.124Z,34.05
2022-12-18T06:12:30.474Z,34.01
2022-12-18T06:14:58.449Z,34.14
2022-12-18T06:17:30.051Z,34.13
2022-12-18T06:19:57.985Z,34.06
2022-12-18T06:22:26.194Z,33.96
2022-12-18T06:24:54.530Z,34.10
2022-12-18T06:27:22.715Z,34.03
2022-12-18T06:29:52.141Z,33.98
2022-12-18T06:32:20.070Z,34.09
2022-12-18T06:34:48.045Z,33.85
2022-12-18T06:37:16.042Z,34.05
2022-12-18T06:39:43.997Z,33.99
2022-12-18T06:42:11.934Z,34.04
2022-12-18T06:44:40.003Z,34.02
2022-12-18T06:47:09.468Z,34.05
2022-12-18T06:49:37.394Z,34.09
2022-12-18T06:52:05.650Z,34.06
2022-12-18T06:54:33.603Z,34.27
2022-12-18T06:57:01.547Z,34.11
2022-12-18T06:59:29.512Z,34.00
2022-12-18T07:01:57.540Z,34.10
2022-12-18T07:04:31.555Z,34.15
2022-12-18T07:06:59.489Z,34.24
2022-12-18T07:09:31.641Z,34.13
2022-12-18T07:11:59.580Z,34.25
2022-12-18T07:14:27.676Z,34.24
2022-12-18T07:16:55.899Z,34.17
2022-12-18T07:19:23.908Z,34.13
2022-12-18T07:21:53.766Z,34.18
2022-12-18T07:24:21.709Z,34.24
2022-12-18T07:26:49.622Z,34.21
2022-12-18T07:29:17.739Z,34.12
2022-12-18T07:31:45.873Z,34.22
2022-12-18T07:34:14.207Z,34.30
2022-12-18T07:36:42.198Z,34.33
2022-12-18T07:39:12.827Z,34.23
2022-12-18T07:41:46.795Z,34.25
2022-12-18T07:44:15.306Z,34.31
2022-12-18T07:46:43.233Z,34.23
2022-12-18T07:49:11.129Z,34.21
2022-12-18T07:51:39.110Z,34.29
2022-12-18T07:54:07.171Z,34.28
2022-12-18T07:56:36.690Z,34.28
2022-12-18T07:59:05.912Z,34.30
2022-12-18T08:01:35.123Z,34.31
2022-12-18T08:04:03.088Z,34.21
2022-12-18T08:06:31.019Z,34.25
2022-12-18T08:08:59.299Z,34.28
2022-12-18T08:11:28.537Z,34.22
2022-12-18T08:13:58.499Z,34.33
2022-12-18T08:16:26.821Z,34.32
2022-12-18T08:18:55.454Z,34.45
2022-12-18T08:21:26.156Z,34.25
2022-12-18T08:23:55.922Z,34.42
2022-12-18T08:26:24.261Z,34.44
2022-12-18T08:28:53.074Z,34.37
2022-12-18T08:31:22.741Z,34.38
2022-12-18T08:33:53.346Z,34.47
2022-12-18T08:36:22.611Z,34.41
2022-12-18T08:38:51.393Z,34.40
2022-12-18T08:41:20.539Z,34.48
2022-12-18T08:44:06.434Z,34.47
2022-12-18T08:46:37.922Z,34.51
2022-12-18T08:49:07.139Z,34.40
2022-12-18T08:51:35.616Z,34.61
2022-12-18T08:54:06.404Z,34.45
2022-12-18T08:56:35.172Z,34.41
2022-12-18T08:59:05.514Z,34.54
2022-12-18T09:01:33.796Z,34.43
2022-12-18T09:04:04.727Z,34.47
2022-12-18T09:06:34.668Z,34.47
2022-12-18T09:09:02.659Z,34.52
2022-12-18T09:11:32.442Z,34.44
2022-12-18T09:14:02.308Z,34.61
2022-12-18T09:16:32.557Z,34.56
2022-12-18T09:19:01.535Z,34.54
2022-12-18T09:21:35.961Z,34.52
2022-12-18T09:24:07.324Z,34.65
2022-12-18T09:26:37.375Z,34.69
2022-12-18T09:29:05.794Z,34.68
2022-12-18T09:31:33.805Z,34.54
2022-12-18T09:34:01.803Z,34.68
2022-12-18T09:36:31.091Z,34.59
2022-12-18T09:39:01.590Z,34.69
2022-12-18T09:41:48.391Z,34.94
2022-12-18T09:44:23.693Z,34.67
2022-12-18T09:46:59.501Z,34.64
2022-12-18T09:49:31.777Z,34.65
2022-12-18T09:52:07.197Z,34.69
2022-12-18T09:54:39.984Z,34.65
2022-12-18T09:57:08.125Z,34.70
2022-12-18T09:59:40.172Z,34.72
2022-12-18T10:02:17.197Z,34.93
2022-12-18T10:04:51.956Z,34.69
2022-12-18T10:07:26.883Z,34.78
2022-12-18T10:10:02.923Z,34.92
2022-12-18T10:12:37.842Z,35.05
2022-12-18T10:15:16.142Z,35.24
2022-12-18T10:17:53.126Z,35.44
2022-12-18T10:20:30.321Z,35.97
2022-12-18T10:23:06.270Z,35.76
2022-12-18T10:25:39.135Z,35.68
2022-12-18T10:28:14.345Z,35.95
2022-12-18T10:30:44.423Z,35.63
2022-12-18T10:33:15.744Z,35.77
2022-12-18T10:35:45.405Z,35.66
2022-12-18T10:38:26.547Z,36.33
2022-12-18T10:40:57.440Z,35.66
2022-12-18T10:43:30.355Z,35.65
2022-12-18T10:46:17.030Z,35.99
2022-12-18T10:48:57.504Z,36.21
2022-12-18T10:51:30.611Z,35.63
2022-12-18T10:54:03.518Z,35.69
2022-12-18T10:56:35.372Z,35.65
2022-12-18T10:59:06.068Z,35.68
2022-12-18T11:01:50.259Z,36.28
2022-12-18T11:04:21.253Z,35.66
2022-12-18T11:07:00.598Z,35.92
2022-12-18T11:09:32.769Z,35.61
2022-12-18T11:12:02.635Z,35.73
2022-12-18T11:14:34.722Z,35.61
2022-12-18T11:17:25.022Z,35.61
2022-12-18T11:19:56.508Z,35.85
2022-12-18T11:22:28.808Z,35.66
2022-12-18T11:25:30.683Z,35.79
2022-12-18T11:27:51.690Z,35.66
2022-12-18T11:30:25.316Z,35.64
2022-12-18T11:32:56.444Z,35.64
2022-12-18T11:35:32.709Z,35.73
2022-12-18T11:38:08.011Z,35.75
2022-12-18T11:40:41.907Z,35.63
2022-12-18T11:43:15.410Z,35.67
2022-12-18T11:45:51.759Z,35.61
2022-12-18T11:48:24.870Z,35.75
2022-12-18T11:50:54.909Z,35.75
2022-12-18T11:53:23.102Z,35.64
2022-12-18T11:56:17.896Z,36.09
2022-12-18T11:58:50.054Z,35.83
2022-12-18T12:01:38.984Z,36.03
2022-12-18T12:04:30.558Z,35.87
2022-12-18T12:07:09.067Z,35.75
2022-12-18T12:09:47.128Z,35.93
2022-12-18T12:12:29.111Z,36.01
2022-12-18T12:15:07.523Z,35.90
2022-12-18T12:17:43.710Z,35.73
2022-12-18T12:20:22.729Z,35.85
2022-12-18T12:23:01.605Z,35.92
2022-12-18T12:25:40.636Z,35.76
2022-12-18T12:28:20.925Z,35.89
2022-12-18T12:31:02.780Z,36.05
2022-12-18T12:33:41.629Z,35.91
2022-12-18T12:36:17.493Z,35.75
2022-12-18T12:38:52.410Z,35.69
2022-12-18T12:41:41.143Z,35.72
2022-12-18T12:44:16.331Z,35.53
2022-12-18T12:46:45.954Z,35.68
2022-12-18T12:49:17.390Z,35.75
2022-12-18T12:51:48.036Z,35.75
2022-12-18T12:54:21.580Z,35.67
2022-12-18T12:56:57.444Z,35.75
2022-12-18T12:59:39.323Z,35.93
2022-12-18T13:02:18.936Z,35.87
2022-12-18T13:04:52.146Z,35.87
2022-12-18T13:07:28.481Z,35.79
2022-12-18T13:10:34.387Z,36.39
2022-12-18T13:13:04.034Z,35.68
2022-12-18T13:15:40.271Z,35.84
2022-12-18T13:18:16.638Z,35.96
2022-12-18T13:20:52.478Z,35.74
2022-12-18T13:23:33.288Z,35.94
2022-12-18T13:26:02.308Z,35.69
2022-12-18T13:28:57.067Z,36.30
2022-12-18T13:32:00.569Z,36.19
2022-12-18T13:34:32.988Z,35.81
2022-12-18T13:37:36.841Z,36.07
2022-12-18T13:40:39.673Z,36.39
2022-12-18T13:43:25.460Z,36.16
2022-12-18T13:46:03.986Z,36.11
2022-12-18T13:48:36.145Z,35.71
2022-12-18T13:51:08.522Z,35.83
2022-12-18T13:53:44.724Z,35.86
2022-12-18T13:56:18.299Z,35.81
2022-12-18T13:58:46.629Z,35.77
2022-12-18T14:01:25.193Z,36.03
2022-12-18T14:04:11.278Z,36.20
2022-12-18T14:06:40.990Z,35.73
2022-12-18T14:09:19.017Z,35.88
2022-12-18T14:11:50.418Z,35.96
2022-12-18T14:14:20.670Z,35.59
2022-12-18T14:16:49.585Z,35.87
2022-12-18T14:19:20.023Z,35.73
2022-12-18T14:21:52.163Z,35.85
2022-12-18T14:24:22.732Z,35.83
2022-12-18T14:26:52.748Z,35.75
2022-12-18T14:29:24.242Z,35.83
2022-12-18T14:32:17.447Z,36.26
2022-12-18T14:34:47.312Z,35.89
2022-12-18T14:37:18.505Z,35.80
2022-12-18T14:39:58.036Z,36.21
2022-12-18T14:42:29.217Z,35.89
2022-12-18T14:45:41.612Z,36.26
2022-12-18T14:48:14.915Z,35.82
2022-12-18T14:50:47.214Z,35.89
2022-12-18T14:53:25.937Z,36.07
2022-12-18T14:55:54.413Z,35.83
2022-12-18T14:58:24.425Z,35.79
2022-12-18T15:00:53.392Z,35.82
2022-12-18T15:03:23.338Z,36.00
2022-12-18T15:05:51.392Z,35.85
2022-12-18T15:08:36.983Z,36.29
2022-12-18T15:11:11.770Z,35.92
2022-12-18T15:13:41.563Z,35.91
2022-12-18T15:16:14.818Z,35.76
2022-12-18T15:18:46.207Z,35.95
2022-12-18T15:21:19.654Z,35.90
2022-12-18T15:23:51.699Z,36.04
2022-12-18T15:26:22.287Z,36.02
2022-12-18T15:28:52.390Z,35.83
2022-12-18T15:31:26.095Z,35.99
2022-12-18T15:34:16.145Z,36.45
2022-12-18T15:36:44.043Z,35.93
2022-12-18T15:39:15.411Z,35.97
2022-12-18T15:42:03.587Z,35.92
2022-12-18T15:44:30.641Z,35.98
2022-12-18T15:46:58.726Z,36.08
2022-12-18T15:49:26.712Z,36.03
2022-12-18T15:51:57.009Z,36.18
2022-12-18T15:54:40.250Z,36.02
2022-12-18T15:57:26.545Z,36.04
2022-12-18T15:59:57.471Z,36.05
2022-12-18T16:02:26.730Z,36.00
2022-12-18T16:04:55.240Z,35.81
2022-12-18T16:07:26.047Z,35.95
2022-12-18T16:09:57.595Z,36.04
2022-12-18T16:12:27.422Z,35.94
2022-12-18T16:14:55.393Z,36.00
2022-12-18T16:17:23.371Z,36.10
2022-12-18T16:19:51.364Z,36.00
2022-12-18T16:22:23.886Z,36.06
2022-12-18T16:24:52.878Z,35.95
2022-12-18T16:27:23.335Z,35.98
2022-12-18T16:29:51.873Z,35.94
2022-12-18T16:32:23.417Z,36.13
2022-12-18T16:34:51.623Z,36.00
2022-12-18T16:37:20.085Z,36.03
2022-12-18T16:39:48.090Z,36.15
2022-12-18T16:42:20.503Z,36.03
2022-12-18T16:44:51.427Z,36.03
2022-12-18T16:47:20.073Z,36.18
2022-12-18T16:49:51.776Z,36.09
2022-12-18T16:52:19.938Z,36.05
2022-12-18T16:54:47.879Z,36.07
2022-12-18T16:57:17.629Z,36.05
2022-12-18T16:59:46.241Z,36.10
2022-12-18T17:02:19.206Z,35.98
2022-12-18T17:04:54.106Z,36.19
2022-12-18T17:07:22.071Z,36.01
2022-12-18T17:09:51.326Z,36.17
2022-12-18T17:12:19.468Z,36.13
2022-12-18T17:14:47.460Z,36.17
2022-12-18T17:17:21.838Z,36.13
2022-12-18T17:19:50.603Z,36.11
2022-12-18T17:22:18.615Z,36.03
2022-12-18T17:24:47.504Z,36.08
2022-12-18T17:27:15.901Z,36.18
2022-12-18T17:29:48.063Z,36.18
2022-12-18T17:32:18.185Z,36.25
2022-12-18T17:34:46.290Z,36.17
2022-12-18T17:37:14.300Z,36.08
2022-12-18T17:39:42.564Z,36.04
2022-12-18T17:42:14.929Z,36.07
2022-12-18T17:44:44.280Z,36.08
2022-12-18T17:47:13.299Z,36.06
2022-12-18T17:49:42.823Z,36.09
2022-12-18T17:52:11.294Z,36.09
2022-12-18T17:54:42.168Z,36.13
2022-12-18T17:57:10.419Z,36.15
2022-12-18T17:59:38.387Z,36.22
2022-12-18T18:02:06.590Z,36.08
2022-12-18T18:04:34.654Z,36.16
2022-12-18T18:07:04.189Z,36.22
2022-12-18T18:09:32.344Z,36.14
2022-12-18T18:12:17.550Z,35.98
2022-12-18T18:14:45.743Z,36.02
2022-12-18T18:17:13.711Z,36.09
2022-12-18T18:19:43.096Z,36.18
2022-12-18T18:22:14.814Z,36.11
2022-12-18T18:24:43.764Z,36.08
2022-12-18T18:27:12.370Z,36.33
2022-12-18T18:29:40.867Z,36.24
2022-12-18T18:32:08.841Z,36.23
2022-12-18T18:34:37.176Z,36.03
2022-12-18T18:37:06.083Z,36.20
2022-12-18T18:39:35.463Z,36.16
2022-12-18T18:42:03.847Z,35.95
2022-12-18T18:44:32.021Z,36.05
2022-12-18T18:47:01.024Z,36.12
2022-12-18T18:49:31.973Z,36.22
2022-12-18T18:52:00.354Z,36.17
2022-12-18T18:54:28.605Z,36.18
2022-12-18T18:59:47.279Z,36.22
2022-12-18T19:02:16.530Z,36.07
2022-12-18T19:04:46.593Z,36.01
2022-12-18T19:07:18.484Z,36.16
2022-12-18T19:10:01.525Z,36.16
2022-12-18T19:12:52.080Z,36.15
2022-12-18T19:15:20.159Z,36.21
2022-12-18T19:17:48.245Z,36.15
2022-12-18T19:20:17.312Z,36.09
2022-12-18T19:22:50.723Z,36.22
2022-12-18T19:25:38.552Z,36.07
2022-12-18T19:28:18.152Z,36.08
2022-12-18T19:30:50.764Z,36.32
2022-12-18T19:33:41.813Z,36.31
2022-12-18T19:36:15.102Z,36.28
2022-12-18T19:38:44.120Z,36.11
2022-12-18T19:41:14.071Z,36.29
2022-12-18T19:43:44.807Z,36.11
2022-12-18T19:46:15.527Z,36.21
2022-12-18T19:48:44.253Z,36.36
2022-12-18T19:51:17.099Z,36.48
2022-12-18T19:53:45.217Z,36.29
2022-12-18T19:56:15.293Z,36.30
2022-12-18T19:58:45.508Z,36.30
2022-12-18T20:01:14.963Z,36.48
2022-12-18T20:03:46.630Z,36.25
2022-12-18T20:06:25.089Z,36.28
2022-12-18T20:09:00.650Z,36.26
2022-12-18T20:11:29.857Z,36.27
2022-12-18T20:13:59.631Z,36.27
2022-12-18T20:16:27.834Z,36.15
2022-12-18T20:18:55.902Z,36.17
2022-12-18T20:21:24.175Z,36.22
2022-12-18T20:23:52.641Z,36.24
2022-12-18T20:26:20.594Z,36.22
2022-12-18T20:28:48.593Z,36.14
2022-12-18T20:31:17.899Z,36.22
2022-12-18T20:33:47.703Z,36.24
2022-12-18T20:36:21.281Z,36.21
2022-12-18T20:38:54.717Z,36.19
2022-12-18T20:41:25.304Z,36.28
2022-12-18T20:43:53.419Z,36.28
2022-12-18T20:46:22.785Z,36.21
2022-12-18T20:48:50.779Z,36.17
2022-12-18T20:51:21.171Z,36.09
2022-12-18T20:53:49.754Z,36.23
2022-12-18T20:56:21.145Z,36.18
2022-12-18T20:58:50.322Z,36.24
2022-12-18T21:01:21.752Z,36.18
2022-12-18T21:03:51.664Z,36.09
2022-12-18T21:06:21.704Z,36.13
2022-12-18T21:08:50.051Z,36.07
2022-12-18T21:11:49.403Z,36.13
2022-12-18T21:14:19.602Z,36.16
2022-12-18T21:16:48.023Z,36.12
2022-12-18T21:19:18.941Z,36.12
2022-12-18T21:21:47.673Z,36.07
2022-12-18T21:24:16.311Z,36.11
2022-12-18T21:26:46.166Z,36.15
2022-12-18T21:29:16.799Z,36.06
2022-12-18T21:31:45.454Z,36.15
2022-12-18T21:34:19.087Z,36.21
2022-12-18T21:36:47.931Z,36.13
2022-12-18T21:39:16.970Z,36.19
2022-12-18T21:42:02.884Z,36.11
2022-12-18T21:44:31.596Z,36.19
2022-12-18T21:47:21.537Z,36.07
2022-12-18T21:49:52.745Z,36.12
2022-12-18T21:52:21.569Z,36.05
2022-12-18T21:54:55.254Z,36.02
2022-12-18T21:57:23.351Z,36.05
2022-12-18T21:59:52.126Z,36.01
2022-12-18T22:02:23.426Z,35.93
2022-12-18T22:04:52.802Z,35.98
2022-12-18T22:07:21.107Z,35.94
2022-12-18T22:09:50.609Z,36.02
2022-12-18T22:12:35.648Z,36.07
2022-12-18T22:15:07.443Z,35.93
2022-12-18T22:17:35.395Z,35.97
2022-12-18T22:20:05.130Z,35.98
2022-12-18T22:22:33.039Z,36.02
2022-12-18T22:25:00.989Z,35.98
2022-12-18T22:27:28.869Z,36.03
2022-12-18T22:30:04.473Z,35.98
2022-12-18T22:32:33.278Z,36.05
2022-12-18T22:35:06.232Z,36.04
2022-12-18T22:37:38.724Z,35.89
2022-12-18T22:40:07.852Z,35.91
2022-12-18T22:42:36.630Z,35.93
2022-12-18T22:45:04.844Z,35.85
2022-12-18T22:47:32.891Z,35.94
2022-12-18T22:50:00.817Z,35.89
2022-12-18T22:52:28.810Z,35.87
2022-12-18T22:54:58.151Z,35.89
2022-12-18T22:57:27.528Z,35.92
2022-12-18T22:59:55.474Z,35.85
2022-12-18T23:02:23.748Z,35.73
2022-12-18T23:04:52.010Z,35.74
2022-12-18T23:07:20.092Z,35.82
2022-12-18T23:09:49.432Z,35.79
2022-12-18T23:12:20.323Z,35.70
2022-12-18T23:14:48.502Z,35.85
2022-12-18T23:17:16.412Z,35.75
2022-12-18T23:19:49.009Z,35.73
2022-12-18T23:22:17.388Z,35.74
2022-12-18T23:24:45.484Z,35.70
2022-12-18T23:27:13.454Z,35.76
2022-12-18T23:29:42.784Z,35.78
2022-12-18T23:32:12.902Z,35.76
2022-12-18T23:34:41.049Z,35.67
2022-12-18T23:37:08.936Z,35.80
2022-12-18T23:39:36.865Z,35.75
2022-12-18T23:42:04.970Z,35.73
2022-12-18T23:44:32.863Z,35.79
2022-12-18T23:47:07.052Z,35.64
2022-12-18T23:49:35.036Z,35.68
2022-12-18T23:52:03.060Z,35.61
2022-12-18T23:54:33.495Z,35.63
2022-12-18T23:57:02.645Z,35.66
2022-12-18T23:59:30.659Z,35.56
